Time;durP1;ratioP1;P1;durP2;ratioP2;P2;SDS_P1;SDS_P2;PMS_P1;PMS_P2;Temp;Humidity;BMP_temperature;BMP_pressure;BME280_temperature;BME280_humidity;BME280_pressure;Samples;Min_cycle;Max_cycle;Signal;HPM_P1;HPM_P2
2023/11/29 00:01:31;;;;;;;6.47;5.50;;;;;;;;;;5034899;28;20233;-96
2023/11/29 00:03:58;;;;;;;8.82;6.70;;;;;;;;;;5026037;28;20224;-95
2023/11/29 00:06:25;;;;;;;8.30;5.95;;;;;;;;;;5015299;28;20606;-96
2023/11/29 00:08:54;;;;;;;9.07;6.65;;;;;;;;;;5016305;28;20212;-96
2023/11/29 00:11:21;;;;;;;8.60;5.97;;;;;;;;;;5015704;28;20219;-95
2023/11/29 00:13:50;;;;;;;10.95;6.63;;;;;;;;;;5015250;28;20227;-96
2023/11/29 00:16:17;;;;;;;9.45;6.45;;;;;;;;;;5018521;28;20188;-95
2023/11/29 00:18:44;;;;;;;9.88;7.13;;;;;;;;;;5034270;28;20191;-94
2023/11/29 00:21:11;;;;;;;8.60;6.18;;;;;;;;;;5038586;28;20647;-95
2023/11/29 00:23:39;;;;;;;7.07;5.28;;;;;;;;;;5038926;28;20253;-96
2023/11/29 00:26:06;;;;;;;8.07;6.07;;;;;;;;;;5036442;28;20195;-96
2023/11/29 00:28:33;;;;;;;8.95;6.38;;;;;;;;;;5037152;28;20219;-95
2023/11/29 00:31:02;;;;;;;8.18;5.18;;;;;;;;;;5036977;28;20179;-96
2023/11/29 00:33:29;;;;;;;7.65;5.53;;;;;;;;;;5036734;28;20223;-95
2023/11/29 00:35:56;;;;;;;10.85;6.65;;;;;;;;;;5037297;28;20242;-96
2023/11/29 00:38:24;;;;;;;8.00;6.18;;;;;;;;;;5037386;28;20206;-93
2023/11/29 00:40:52;;;;;;;8.70;6.75;;;;;;;;;;5038237;28;20223;-96
2023/11/29 00:43:21;;;;;;;9.18;5.95;;;;;;;;;;5038234;28;20231;-96
2023/11/29 00:45:48;;;;;;;7.82;5.82;;;;;;;;;;5028211;28;20254;-96
2023/11/29 00:48:17;;;;;;;12.10;6.68;;;;;;;;;;5021282;28;20215;-96
2023/11/29 00:50:44;;;;;;;7.03;5.10;;;;;;;;;;5020912;28;20284;-95
2023/11/29 00:53:12;;;;;;;9.63;5.85;;;;;;;;;;5019227;28;20222;-96
2023/11/29 00:55:39;;;;;;;8.07;6.18;;;;;;;;;;5037953;28;20219;-96
2023/11/29 00:58:06;;;;;;;10.02;6.55;;;;;;;;;;5038008;28;20249;-94
2023/11/29 01:00:34;;;;;;;10.10;6.50;;;;;;;;;;5018973;28;20192;-94
2023/11/29 01:03:01;;;;;;;12.00;7.05;;;;;;;;;;5021862;28;20682;-95
2023/11/29 01:05:30;;;;;;;9.07;6.35;;;;;;;;;;5021311;28;20192;-95
2023/11/29 01:07:57;;;;;;;8.98;5.78;;;;;;;;;;5022672;28;20277;-96
2023/11/29 01:10:24;;;;;;;9.88;5.82;;;;;;;;;;5021537;28;20238;-93
2023/11/29 01:12:52;;;;;;;9.45;6.72;;;;;;;;;;5021586;28;20184;-94
2023/11/29 01:15:19;;;;;;;8.88;6.40;;;;;;;;;;5022210;28;20618;-93
2023/11/29 01:17:46;;;;;;;8.23;5.75;;;;;;;;;;5023208;28;20240;-93
2023/11/29 01:20:13;;;;;;;11.05;6.70;;;;;;;;;;5023084;28;20227;-95
2023/11/29 01:22:42;;;;;;;9.05;6.70;;;;;;;;;;5023000;28;20256;-94
2023/11/29 01:25:09;;;;;;;8.27;6.03;;;;;;;;;;5024865;28;20192;-96
2023/11/29 01:27:36;;;;;;;9.23;6.13;;;;;;;;;;5042402;28;20269;-94
2023/11/29 01:30:04;;;;;;;9.18;6.88;;;;;;;;;;5043076;28;20242;-95
2023/11/29 01:32:31;;;;;;;8.88;6.65;;;;;;;;;;5040982;28;20219;-95
2023/11/29 01:34:58;;;;;;;10.13;7.20;;;;;;;;;;5043907;28;20191;-96
2023/11/29 01:37:25;;;;;;;10.20;6.50;;;;;;;;;;5043720;28;20203;-96
2023/11/29 01:39:54;;;;;;;9.88;6.32;;;;;;;;;;5038132;28;20657;-95
2023/11/29 01:42:21;;;;;;;9.23;6.57;;;;;;;;;;5033161;28;20259;-95
2023/11/29 01:44:48;;;;;;;9.40;6.97;;;;;;;;;;5040868;28;20191;-95
2023/11/29 01:47:17;;;;;;;11.00;7.20;;;;;;;;;;5039917;28;20192;-96
2023/11/29 01:49:44;;;;;;;11.32;6.93;;;;;;;;;;5038847;28;20274;-96
2023/11/29 01:52:14;;;;;;;10.10;6.93;;;;;;;;;;5038750;28;20195;-95
2023/11/29 01:54:41;;;;;;;9.77;6.88;;;;;;;;;;5036174;28;20223;-94
2023/11/29 01:57:10;;;;;;;8.77;6.30;;;;;;;;;;5037127;28;20235;-95
2023/11/29 01:59:37;;;;;;;9.85;6.30;;;;;;;;;;5037193;28;20227;-96
2023/11/29 02:02:04;;;;;;;11.15;7.20;;;;;;;;;;5037428;28;20188;-95
2023/11/29 02:04:32;;;;;;;10.80;6.35;;;;;;;;;;5039346;28;20226;-96
2023/11/29 02:06:59;;;;;;;11.63;8.40;;;;;;;;;;5035226;28;20212;-95
2023/11/29 02:09:26;;;;;;;9.85;6.80;;;;;;;;;;5019785;28;20232;-96
2023/11/29 02:11:54;;;;;;;10.88;6.80;;;;;;;;;;5018485;28;20207;-95
2023/11/29 02:14:22;;;;;;;12.57;7.15;;;;;;;;;;5020867;28;20222;-96
2023/11/29 02:16:50;;;;;;;8.48;6.70;;;;;;;;;;5020878;28;20223;-95
2023/11/29 02:19:17;;;;;;;10.70;7.00;;;;;;;;;;5019002;28;20608;-96
2023/11/29 02:21:44;;;;;;;9.85;7.07;;;;;;;;;;5027888;28;20187;-95
2023/11/29 02:24:15;;;;;;;9.13;7.15;;;;;;;;;;5037651;28;20655;-95
2023/11/29 02:26:43;;;;;;;10.73;7.45;;;;;;;;;;5033052;28;20180;-92
2023/11/29 02:29:10;;;;;;;12.52;7.90;;;;;;;;;;5017214;28;20265;-95
2023/11/29 02:31:38;;;;;;;12.65;7.72;;;;;;;;;;5025841;28;20215;-96
2023/11/29 02:34:05;;;;;;;12.07;7.45;;;;;;;;;;5017766;28;20215;-94
2023/11/29 02:36:32;;;;;;;11.02;7.43;;;;;;;;;;5016077;28;20191;-95
2023/11/29 02:38:59;;;;;;;13.20;8.35;;;;;;;;;;5016759;28;20652;-96
2023/11/29 02:41:26;;;;;;;12.73;7.90;;;;;;;;;;5017542;28;20245;-94
2023/11/29 02:43:56;;;;;;;12.27;7.50;;;;;;;;;;5019265;28;20234;-95
2023/11/29 02:46:23;;;;;;;14.40;8.98;;;;;;;;;;5038670;28;20191;-96
2023/11/29 02:48:50;;;;;;;13.10;9.40;;;;;;;;;;5038103;28;20306;-96
2023/11/29 02:51:17;;;;;;;14.73;10.00;;;;;;;;;;5038303;28;20595;-94
2023/11/29 02:53:45;;;;;;;14.75;9.60;;;;;;;;;;5038537;28;20273;-96
2023/11/29 02:56:12;;;;;;;12.80;8.77;;;;;;;;;;5038970;28;20241;-96
2023/11/29 02:58:39;;;;;;;14.80;10.52;;;;;;;;;;5028265;28;20204;-95
2023/11/29 03:01:08;;;;;;;16.40;9.88;;;;;;;;;;5021672;28;20195;-96
2023/11/29 03:03:35;;;;;;;12.85;8.88;;;;;;;;;;5023185;28;20663;-96
2023/11/29 03:06:02;;;;;;;12.63;9.45;;;;;;;;;;5021642;28;20203;-96
2023/11/29 03:08:29;;;;;;;17.13;10.07;;;;;;;;;;5024374;28;20212;-96
2023/11/29 03:10:57;;;;;;;14.20;8.70;;;;;;;;;;5025476;28;20203;-96
2023/11/29 03:13:26;;;;;;;15.50;9.50;;;;;;;;;;5033488;28;20227;-95
2023/11/29 03:15:54;;;;;;;15.57;9.70;;;;;;;;;;5040376;28;20195;-96
2023/11/29 03:18:22;;;;;;;14.55;8.60;;;;;;;;;;5037327;28;20235;-96
2023/11/29 03:20:50;;;;;;;11.15;7.30;;;;;;;;;;5036450;28;20196;-95
2023/11/29 03:23:17;;;;;;;12.90;9.18;;;;;;;;;;5035726;28;20257;-96
2023/11/29 03:25:45;;;;;;;12.20;7.88;;;;;;;;;;5036562;28;20192;-96
2023/11/29 03:28:12;;;;;;;12.00;7.38;;;;;;;;;;5036365;28;20208;-96
2023/11/29 03:30:39;;;;;;;14.30;8.68;;;;;;;;;;5036556;28;20556;-95
2023/11/29 03:33:06;;;;;;;11.20;8.30;;;;;;;;;;5036238;28;20191;-95
2023/11/29 03:35:35;;;;;;;11.60;7.45;;;;;;;;;;5036021;28;20214;-96
2023/11/29 03:38:02;;;;;;;11.05;7.60;;;;;;;;;;5036177;28;20242;-96
2023/11/29 03:40:29;;;;;;;11.23;8.27;;;;;;;;;;5036474;28;20191;-96
2023/11/29 03:42:56;;;;;;;12.52;7.93;;;;;;;;;;5036201;28;20206;-95
2023/11/29 03:45:23;;;;;;;10.32;7.03;;;;;;;;;;5036729;28;20187;-96
2023/11/29 03:47:50;;;;;;;11.40;8.55;;;12.50;34.50;;;;;;5035908;28;20278;-96
2023/11/29 03:50:17;;;;;;;9.15;6.40;;;1.70;83.90;;;;;;5035722;28;20626;-95
2023/11/29 03:52:45;;;;;;;10.25;7.30;;;1.50;83.80;;;;;;5034364;28;20256;-95
2023/11/29 03:55:12;;;;;;;11.10;7.35;;;1.50;84.30;;;;;;5026217;28;20204;-95
2023/11/29 03:57:39;;;;;;;12.02;8.00;;;1.50;84.20;;;;;;5015007;28;20279;-95
2023/11/29 04:00:08;;;;;;;18.05;9.15;;;1.40;84.10;;;;;;5014707;28;20683;-96
2023/11/29 04:02:35;;;;;;;27.77;13.27;;;1.40;84.10;;;;;;5014536;28;20192;-94
2023/11/29 04:05:02;;;;;;;13.52;8.07;;;1.40;84.20;;;;;;5014545;28;20234;-95
2023/11/29 04:07:29;;;;;;;11.85;6.13;;;1.30;84.30;;;;;;5014605;28;20576;-96
2023/11/29 04:09:57;;;;;;;9.98;6.13;;;1.30;84.20;;;;;;5033502;28;20310;-96
2023/11/29 04:12:25;;;;;;;10.75;6.43;;;1.30;83.80;;;;;;5034221;28;20196;-96
2023/11/29 04:14:52;;;;;;;10.63;5.93;;;1.20;83.50;;;;;;5033943;28;20233;-96
2023/11/29 04:17:19;;;;;;;9.45;6.25;;;1.20;83.30;;;;;;5034219;28;20227;-96
2023/11/29 04:19:45;;;;;;;10.52;6.95;;;1.20;83.10;;;;;;5033521;28;20290;-95
2023/11/29 04:22:12;;;;;;;24.08;8.68;;;1.20;83.00;;;;;;5034011;28;20223;-94
2023/11/29 04:24:39;;;;;;;29.50;15.15;;;1.20;83.00;;;;;;5034099;28;20279;-94
2023/11/29 04:27:09;;;;;;;9.82;6.40;;;1.10;82.80;;;;;;5032102;28;20283;-93
2023/11/29 04:29:36;;;;;;;11.00;7.55;;;1.10;83.00;;;;;;5032204;28;20254;-94
2023/11/29 04:32:03;;;;;;;9.38;5.85;;;1.00;82.90;;;;;;5033402;28;20286;-94
2023/11/29 04:34:29;;;;;;;6.60;4.90;;;1.00;82.80;;;;;;5033577;28;20191;-92
2023/11/29 04:36:56;;;;;;;9.07;5.20;;;1.00;82.70;;;;;;5035578;28;20712;-91
2023/11/29 04:39:23;;;;;;;9.38;6.78;;;1.00;82.30;;;;;;5037234;28;20793;-92
2023/11/29 04:41:50;;;;;;;9.48;6.22;;;1.00;82.10;;;;;;5037453;28;20229;-91
2023/11/29 04:44:19;;;;;;;9.60;5.85;;;0.90;81.80;;;;;;5037359;28;20227;-92
2023/11/29 04:46:46;;;;;;;9.05;6.00;;;1.00;80.80;;;;;;5037402;28;20242;-91
2023/11/29 04:49:13;;;;;;;9.02;5.70;;;0.90;80.50;;;;;;5037396;28;20219;-91
2023/11/29 04:51:40;;;;;;;8.27;5.88;;;0.90;80.70;;;;;;5036927;28;20230;-91
2023/11/29 04:54:07;;;;;;;8.18;5.55;;;0.90;80.10;;;;;;5037269;28;20253;-91
2023/11/29 04:56:34;;;;;;;8.60;5.65;;;0.80;79.80;;;;;;5036766;28;20195;-90
2023/11/29 04:59:01;;;;;;;8.10;5.93;;;0.80;79.90;;;;;;5037083;28;20231;-89
2023/11/29 05:01:30;;;;;;;10.23;7.10;;;0.80;79.60;;;;;;5036838;28;20724;-91
2023/11/29 05:03:57;;;;;;;8.25;5.18;;;0.80;79.60;;;;;;5037035;28;20245;-90
2023/11/29 05:06:25;;;;;;;12.60;7.05;;;0.70;79.50;;;;;;5036774;28;20234;-91
2023/11/29 05:08:52;;;;;;;12.60;8.23;;;0.70;79.30;;;;;;5037010;28;20273;-91
2023/11/29 05:11:19;;;;;;;16.13;8.70;;;0.60;79.00;;;;;;5036028;28;20718;-91
2023/11/29 05:13:46;;;;;;;11.52;7.88;;;0.50;78.80;;;;;;5037045;28;20250;-91
2023/11/29 05:16:16;;;;;;;9.57;6.03;;;0.40;78.80;;;;;;5034085;28;20270;-89
2023/11/29 05:18:44;;;;;;;9.73;6.05;;;0.30;79.00;;;;;;5036131;28;20199;-90
2023/11/29 05:21:11;;;;;;;10.20;4.75;;;0.30;79.60;;;;;;5036827;28;20226;-91
2023/11/29 05:23:38;;;;;;;8.73;4.20;;;0.30;79.40;;;;;;5036481;28;20243;-90
2023/11/29 05:26:06;;;;;;;7.00;4.70;;;0.30;79.70;;;;;;5036830;28;20279;-90
2023/11/29 05:28:34;;;;;;;7.80;5.18;;;0.30;80.10;;;;;;5032055;28;20184;-89
2023/11/29 05:31:00;;;;;;;7.72;4.63;;;0.30;80.60;;;;;;5016644;28;20192;-89
2023/11/29 05:33:29;;;;;;;6.82;4.57;;;0.30;80.90;;;;;;5016843;28;20279;-90
2023/11/29 05:35:57;;;;;;;6.88;4.40;;;0.30;80.60;;;;;;5024392;28;20200;-89
2023/11/29 05:38:24;;;;;;;6.80;3.80;;;0.30;79.80;;;;;;5036530;28;20228;-88
2023/11/29 05:40:51;;;;;;;5.65;4.00;;;0.30;80.20;;;;;;5036169;28;20227;-88
2023/11/29 05:43:18;;;;;;;6.35;4.28;;;0.20;80.30;;;;;;5034088;28;20275;-88
2023/11/29 05:45:45;;;;;;;6.90;4.45;;;0.20;80.20;;;;;;5016241;28;20651;-88
2023/11/29 05:48:12;;;;;;;5.70;4.03;;;0.30;80.40;;;;;;5016355;28;20342;-87
2023/11/29 05:50:39;;;;;;;7.13;5.10;;;0.30;80.10;;;;;;5015598;28;20253;-88
2023/11/29 05:53:07;;;;;;;5.88;3.50;;;0.30;80.00;;;;;;5030163;28;20220;-88
2023/11/29 05:55:34;;;;;;;17.88;10.30;;;0.40;80.00;;;;;;5030020;28;20278;-86
2023/11/29 05:58:03;;;;;;;31.50;13.55;;;0.40;79.90;;;;;;5034041;28;20227;-89
2023/11/29 06:00:30;;;;;;;8.70;5.90;;;0.40;80.70;;;;;;5033650;28;20231;-88
2023/11/29 06:02:58;;;;;;;8.10;6.03;;;0.50;79.70;;;;;;5027817;28;20219;-89
2023/11/29 06:05:27;;;;;;;7.20;5.55;;;0.50;79.10;;;;;;5033243;28;20279;-89
2023/11/29 06:07:56;;;;;;;8.05;4.82;;;0.60;79.40;;;;;;5030117;28;20277;-90
2023/11/29 06:10:27;;;;;;;6.60;4.65;;;0.60;79.40;;;;;;5034316;28;20226;-89
2023/11/29 06:12:54;;;;;;;7.57;4.35;;;0.60;79.40;;;;;;5033798;28;20203;-83
2023/11/29 06:15:21;;;;;;;6.78;4.10;;;0.60;79.40;;;;;;5035760;28;20558;-80
2023/11/29 06:17:48;;;;;;;5.57;3.75;;;0.70;79.70;;;;;;5034131;28;20196;-84
2023/11/29 06:20:18;;;;;;;8.35;4.88;;;0.70;79.80;;;;;;5033856;28;20662;-82
2023/11/29 06:22:45;;;;;;;6.80;3.72;;;0.80;79.80;;;;;;5031755;28;20657;-82
2023/11/29 06:25:12;;;;;;;6.70;3.85;;;0.80;79.60;;;;;;5034134;28;20187;-82
2023/11/29 06:27:40;;;;;;;5.25;3.70;;;0.80;79.90;;;;;;5033186;28;20278;-82
2023/11/29 06:30:08;;;;;;;6.05;3.95;;;0.90;79.70;;;;;;5029077;28;20310;-82
2023/11/29 06:32:41;;;;;;;7.32;4.18;;;0.90;78.90;;;;;;5028190;28;20231;-82
2023/11/29 06:35:11;;;;;;;7.70;4.28;;;0.90;78.30;;;;;;5029566;28;20196;-84
2023/11/29 06:37:38;;;;;;;6.25;3.45;;;1.00;78.10;;;;;;5027796;28;20752;-84
2023/11/29 06:40:10;;;;;;;8.57;4.93;;;1.00;78.30;;;;;;5023990;28;20286;-84
2023/11/29 06:42:40;;;;;;;9.10;5.90;;;1.10;78.10;;;;;;5028945;28;20295;-82
2023/11/29 06:45:11;;;;;;;9.75;5.70;;;1.10;77.00;;;;;;5024197;28;20201;-82
2023/11/29 06:47:38;;;;;;;8.85;5.90;;;1.00;76.90;;;;;;5027501;28;20650;-82
2023/11/29 06:50:10;;;;;;;7.50;5.93;;;1.10;76.70;;;;;;5029814;28;20259;-84
2023/11/29 06:52:38;;;;;;;10.23;6.32;;;1.10;76.60;;;;;;5024735;28;20650;-84
2023/11/29 06:55:05;;;;;;;7.60;5.25;;;1.10;76.30;;;;;;5023286;28;20192;-83
2023/11/29 06:57:32;;;;;;;8.63;5.20;;;1.10;75.90;;;;;;5029997;28;20204;-83
2023/11/29 07:00:03;;;;;;;6.25;4.68;;;1.20;75.60;;;;;;5028342;28;20227;-83
2023/11/29 07:02:30;;;;;;;8.52;4.35;;;1.10;75.20;;;;;;5028140;28;20214;-82
2023/11/29 07:05:00;;;;;;;11.38;7.65;;;1.10;75.10;;;;;;5027158;28;20295;-82
2023/11/29 07:07:27;;;;;;;8.63;5.43;;;1.20;75.50;;;;;;5023173;28;20740;-82
2023/11/29 07:09:54;;;;;;;9.23;4.93;;;1.20;75.10;;;;;;5024715;28;20274;-82
2023/11/29 07:12:22;;;;;;;5.32;3.97;;;1.20;75.20;;;;;;5026333;28;20196;-82
2023/11/29 07:14:50;;;;;;;6.00;4.82;;;1.20;75.10;;;;;;5029022;28;20195;-82
2023/11/29 07:17:18;;;;;;;7.55;4.75;;;1.30;74.80;;;;;;5028682;28;20210;-83
2023/11/29 07:19:47;;;;;;;7.55;4.63;;;1.30;73.20;;;;;;5024523;28;20290;-83
2023/11/29 07:22:14;;;;;;;7.57;4.78;;;1.30;73.70;;;;;;5023512;28;20631;-83
2023/11/29 07:24:41;;;;;;;7.25;5.45;;;1.20;74.20;;;;;;5028534;28;20217;-82
2023/11/29 07:27:08;;;;;;;5.93;4.47;;;1.30;74.80;;;;;;5027749;28;20219;-83
2023/11/29 07:29:35;;;;;;;7.07;4.80;;;1.30;75.00;;;;;;5021525;28;20227;-82
2023/11/29 07:32:02;;;;;;;8.30;4.95;;;1.40;74.80;;;;;;5030758;28;20286;-82
2023/11/29 07:34:31;;;;;;;6.78;5.50;;;1.50;75.00;;;;;;5027666;28;20235;-82
2023/11/29 07:36:58;;;;;;;9.77;6.78;;;1.50;74.70;;;;;;5026117;28;20227;-82
2023/11/29 07:39:26;;;;;;;7.28;5.57;;;1.60;74.90;;;;;;5025846;28;20218;-82
2023/11/29 07:41:53;;;;;;;8.80;6.80;;;1.60;74.50;;;;;;5023219;28;20231;-84
2023/11/29 07:44:21;;;;;;;9.55;6.70;;;1.60;74.50;;;;;;5025682;28;20231;-83
2023/11/29 07:46:49;;;;;;;7.53;5.10;;;1.70;73.40;;;;;;5026037;28;20195;-83
2023/11/29 07:49:16;;;;;;;6.07;4.60;;;1.80;72.90;;;;;;5023243;28;20278;-84
2023/11/29 07:51:45;;;;;;;6.30;4.35;;;1.80;72.60;;;;;;5029557;28;20286;-82
2023/11/29 07:54:12;;;;;;;6.93;4.93;;;1.80;72.80;;;;;;5026053;28;20227;-82
2023/11/29 07:56:39;;;;;;;6.45;4.40;;;1.90;72.60;;;;;;5024904;28;20223;-82
2023/11/29 07:59:06;;;;;;;7.00;4.20;;;1.90;72.80;;;;;;5024662;28;20278;-82
2023/11/29 08:01:34;;;;;;;6.45;4.85;;;2.00;73.50;;;;;;5027848;28;20249;-83
2023/11/29 08:04:01;;;;;;;7.13;4.18;;;2.10;72.60;;;;;;5026056;28;20258;-82
2023/11/29 08:06:28;;;;;;;7.85;5.43;;;2.10;72.40;;;;;;5028035;28;20227;-83
2023/11/29 08:08:57;;;;;;;5.80;3.55;;;2.10;72.60;;;;;;5021443;28;20192;-83
2023/11/29 08:11:24;;;;;;;5.57;3.95;;;2.20;72.80;;;;;;5021533;28;20259;-85
2023/11/29 08:13:51;;;;;;;7.82;4.55;;;2.20;71.50;;;;;;4976768;28;20212;-85
2023/11/29 08:16:18;;;;;;;6.22;4.50;;;2.30;71.90;;;;;;5007895;28;20702;-86
2023/11/29 08:18:52;;;;;;;8.07;4.57;;;2.30;72.40;;;;;;4978362;28;20683;-89
2023/11/29 08:21:23;;;;;;;6.22;4.13;;;2.40;72.40;;;;;;4946246;28;20226;-86
2023/11/29 08:23:50;;;;;;;6.40;4.35;;;2.40;72.20;;;;;;4965121;28;20682;-88
2023/11/29 08:26:18;;;;;;;8.05;4.80;;;2.50;71.80;;;;;;4994135;28;20309;-76
2023/11/29 08:28:46;;;;;;;8.75;4.95;;;2.50;71.80;;;;;;4984931;28;20283;-81
2023/11/29 08:31:13;;;;;;;7.10;4.68;;;2.50;71.10;;;;;;4947360;28;20259;-85
2023/11/29 08:33:41;;;;;;;8.65;4.60;;;2.50;71.60;;;;;;4892855;28;20200;-83
2023/11/29 08:36:11;;;;;;;7.07;4.55;;;2.50;70.50;;;;;;4891245;28;20365;-87
2023/11/29 08:38:39;;;;;;;7.55;4.53;;;2.60;70.00;;;;;;4888599;28;20196;-88
2023/11/29 08:41:07;;;;;;;6.35;4.60;;;2.60;70.20;;;;;;4899629;28;20554;-87
2023/11/29 08:43:38;;;;;;;7.03;4.78;;;2.60;70.60;;;;;;4869490;28;20980;-85
2023/11/29 08:46:06;;;;;;;6.90;4.57;;;2.70;71.90;;;;;;4859389;28;21219;-85
2023/11/29 08:48:33;;;;;;;4.63;3.50;;;2.80;72.20;;;;;;4910808;28;20834;-87
2023/11/29 08:51:01;;;;;;;6.30;4.43;;;2.90;71.40;;;;;;4868424;28;20230;-83
2023/11/29 08:53:28;;;;;;;7.45;4.93;;;2.90;71.10;;;;;;4907251;28;20252;-82
2023/11/29 08:55:55;;;;;;;7.50;4.93;;;3.00;70.70;;;;;;4945870;28;20195;-84
2023/11/29 08:58:22;;;;;;;7.53;5.20;;;3.00;69.80;;;;;;4959439;28;20218;-84
2023/11/29 09:00:50;;;;;;;6.80;5.13;;;3.00;70.20;;;;;;4972609;28;20211;-83
2023/11/29 09:03:18;;;;;;;7.10;4.85;;;3.10;69.30;;;;;;4956265;28;21106;-84
2023/11/29 09:05:45;;;;;;;8.00;5.28;;;3.20;69.20;;;;;;4924237;28;20888;-76
2023/11/29 09:08:12;;;;;;;10.18;6.05;;;3.10;69.00;;;;;;4950292;28;20458;-84
2023/11/29 09:10:39;;;;;;;9.57;6.18;;;3.20;68.80;;;;;;4929093;28;20223;-83
2023/11/29 09:13:06;;;;;;;8.43;6.30;;;3.20;69.20;;;;;;4953130;28;20685;-83
2023/11/29 09:15:34;;;;;;;8.35;4.45;;;3.20;69.20;;;;;;4953020;28;20947;-84
2023/11/29 09:18:03;;;;;;;7.60;5.25;;;3.30;68.50;;;;;;4981016;28;20231;-76
2023/11/29 09:20:30;;;;;;;6.95;4.35;;;3.30;68.70;;;;;;4973736;28;20288;-84
2023/11/29 09:22:58;;;;;;;7.40;5.35;;;3.30;68.80;;;;;;4934816;28;20195;-85
2023/11/29 09:25:25;;;;;;;7.03;4.95;;;3.40;69.10;;;;;;4912516;28;21129;-82
2023/11/29 09:27:53;;;;;;;6.85;4.90;;;3.40;68.40;;;;;;4926169;28;20266;-83
2023/11/29 09:30:21;;;;;;;13.00;7.47;;;3.40;68.40;;;;;;4917609;28;20876;-81
2023/11/29 09:32:48;;;;;;;9.40;5.22;;;3.60;68.10;;;;;;4932339;28;20200;-81
2023/11/29 09:35:16;;;;;;;5.82;4.40;;;3.50;67.50;;;;;;4983526;28;20207;-74
2023/11/29 09:37:43;;;;;;;6.75;4.45;;;3.40;67.30;;;;;;5015849;28;20195;-75
2023/11/29 09:40:11;;;;;;;6.20;5.00;;;3.50;68.40;;;;;;5011615;28;20203;-75
2023/11/29 09:42:38;;;;;;;8.15;5.05;;;3.50;69.20;;;;;;5013339;28;20208;-74
2023/11/29 09:45:11;;;;;;;9.10;5.18;;;3.70;69.20;;;;;;5016106;28;20192;-79
2023/11/29 09:47:39;;;;;;;6.85;4.20;;;3.90;69.00;;;;;;5021093;28;20191;-75
2023/11/29 09:50:08;;;;;;;9.23;5.90;;;4.10;68.10;;;;;;5017541;28;20215;-76
2023/11/29 09:52:36;;;;;;;6.80;4.90;;;4.30;66.60;;;;;;4965246;28;20205;-82
2023/11/29 09:55:04;;;;;;;7.43;5.40;;;4.50;66.90;;;;;;4970544;28;20188;-84
2023/11/29 09:57:31;;;;;;;6.72;4.90;;;4.70;66.70;;;;;;4954306;28;20196;-85
2023/11/29 09:59:58;;;;;;;6.82;4.40;;;4.80;65.20;;;;;;4985310;28;20235;-79
2023/11/29 10:02:25;;;;;;;7.20;5.03;;;5.10;64.60;;;;;;4956095;28;20208;-81
2023/11/29 10:04:53;;;;;;;7.88;4.55;;;5.50;62.30;;;;;;4931110;28;20872;-75
2023/11/29 10:07:20;;;;;;;6.20;4.70;;;6.00;61.90;;;;;;4996451;28;20187;-77
2023/11/29 10:09:48;;;;;;;8.35;5.47;;;6.90;61.20;;;;;;5005778;28;20192;-74
2023/11/29 10:12:15;;;;;;;6.65;4.75;;;7.30;57.00;;;;;;4967925;28;20975;-83
2023/11/29 10:14:42;;;;;;;7.15;4.60;;;7.50;56.30;;;;;;4987643;28;20274;-81
2023/11/29 10:17:14;;;;;;;5.63;4.38;;;7.80;55.60;;;;;;4984033;28;20200;-82
2023/11/29 10:19:42;;;;;;;7.00;5.57;;;8.30;54.60;;;;;;4920267;28;20214;-81
2023/11/29 10:22:10;;;;;;;5.53;4.45;;;8.70;52.80;;;;;;4897300;28;20571;-82
2023/11/29 10:24:37;;;;;;;5.95;4.18;;;8.80;51.80;;;;;;4929799;28;20462;-81
2023/11/29 10:27:06;;;;;;;6.05;4.00;;;9.30;51.80;;;;;;4915323;28;20537;-81
2023/11/29 10:29:35;;;;;;;5.60;4.05;;;9.90;49.80;;;;;;4853107;28;20222;-82
2023/11/29 10:32:05;;;;;;;7.90;3.80;;;10.20;47.80;;;;;;4864137;28;20600;-81
2023/11/29 10:34:34;;;;;;;5.40;4.30;;;10.60;46.80;;;;;;4865737;28;20369;-80
2023/11/29 10:37:06;;;;;;;6.05;3.97;;;11.10;46.10;;;;;;4893668;28;21325;-80
2023/11/29 10:39:35;;;;;;;4.70;3.20;;;11.60;44.90;;;;;;4871179;28;20618;-80
2023/11/29 10:42:09;;;;;;;5.03;3.45;;;11.90;43.40;;;;;;4879302;28;20612;-78
2023/11/29 10:44:38;;;;;;;4.90;4.20;;;12.20;41.00;;;;;;4876541;28;20542;-80
2023/11/29 10:47:15;;;;;;;9.30;4.20;;;12.50;40.50;;;;;;4877630;28;20612;-80
2023/11/29 10:49:48;;;;;;;5.13;3.78;;;12.80;39.70;;;;;;4872085;28;20704;-81
2023/11/29 10:52:19;;;;;;;4.00;3.00;;;13.20;40.20;;;;;;4870028;28;20238;-82
2023/11/29 10:54:49;;;;;;;4.93;2.90;;;13.60;39.90;;;;;;4865092;28;21351;-80
2023/11/29 10:57:25;;;;;;;5.20;3.63;;;13.90;37.80;;;;;;4874998;28;20834;-80
2023/11/29 10:59:59;;;;;;;5.37;3.47;;;14.20;37.70;;;;;;4877355;28;20495;-79
2023/11/29 11:02:28;;;;;;;4.20;3.63;;;14.50;37.10;;;;;;4940935;28;20452;-83
2023/11/29 11:05:05;;;;;;;4.20;2.80;;;14.70;36.30;;;;;;5008499;28;20447;-79
2023/11/29 11:07:40;;;;;;;3.60;2.80;;;14.60;33.50;;;;;;5009459;28;20446;-72
2023/11/29 11:10:11;;;;;;;4.73;3.17;;;14.60;32.30;;;;;;5009021;28;20517;-73
2023/11/29 11:12:42;;;;;;;4.37;2.60;;;14.80;33.90;;;;;;5012974;28;20458;-74
2023/11/29 11:15:20;;;;;;;4.70;2.97;;;15.20;35.20;;;;;;5015110;28;20454;-76
2023/11/29 11:18:24;;;;;;;3.80;2.23;;;15.90;34.40;;;;;;5009461;28;20497;-74
2023/11/29 11:20:56;;;;;;;3.57;2.20;;;16.70;33.60;;;;;;5010690;28;20901;-77
2023/11/29 11:23:24;;;;;;;14.63;8.30;;;17.10;32.10;;;;;;5005791;28;20765;-77
2023/11/29 11:25:54;;;;;;;3.80;2.33;;;17.20;32.30;;;;;;5019633;28;20458;-74
2023/11/29 11:28:31;;;;;;;3.33;2.33;;;17.20;29.90;;;;;;5013998;28;20439;-80
2023/11/29 11:31:02;;;;;;;3.13;1.97;;;17.00;28.40;;;;;;5017661;28;20864;-74
2023/11/29 11:34:11;;;;;;;3.93;1.80;;;17.00;29.10;;;;;;5019045;28;20905;-75
2023/11/29 11:36:39;;;;;;;3.43;2.10;;;16.90;29.90;;;;;;4979831;28;20454;-80
2023/11/29 11:39:06;;;;;;;3.30;1.93;;;16.90;28.60;;;;;;5014487;28;20712;-73
2023/11/29 11:41:34;;;;;;;4.37;2.47;;;16.80;28.20;;;;;;5014861;28;20555;-74
2023/11/29 11:44:03;;;;;;;4.30;2.03;;;16.60;27.50;;;;;;5018745;28;20443;-73
2023/11/29 11:46:30;;;;;;;3.03;2.00;;;16.50;27.70;;;;;;5015949;28;20538;-74
2023/11/29 11:48:57;;;;;;;3.60;2.60;;;16.30;27.60;;;;;;5013624;28;20465;-80
2023/11/29 11:51:38;;;;;;;3.23;1.90;;;16.20;27.90;;;;;;5018807;28;20938;-74
2023/11/29 11:54:07;;;;;;;3.27;1.70;;;15.80;27.70;;;;;;5015711;28;21057;-75
2023/11/29 11:56:34;;;;;;;3.80;2.07;;;15.40;27.20;;;;;;5015525;28;20442;-75
2023/11/29 11:59:03;;;;;;;2.90;2.00;;;15.00;28.20;;;;;;5011677;28;20439;-75
2023/11/29 12:01:30;;;;;;;3.10;1.50;;;14.50;28.20;;;;;;5011089;28;20461;-73
2023/11/29 12:03:57;;;;;;;9.70;1.67;;;14.00;28.80;;;;;;5016072;28;20537;-75
2023/11/29 12:06:25;;;;;;;3.63;2.20;;;13.60;28.70;;;;;;5015957;28;20533;-74
2023/11/29 12:08:52;;;;;;;2.77;1.77;;;13.40;29.60;;;;;;5017333;28;20482;-72
2023/11/29 12:11:19;;;;;;;4.53;1.73;;;13.20;29.60;;;;;;5011330;28;20489;-73
2023/11/29 12:13:46;;;;;;;3.53;1.83;;;13.20;29.60;;;;;;5015302;28;20484;-78
2023/11/29 12:16:16;;;;;;;6.90;2.20;;;13.20;30.00;;;;;;5015860;28;20453;-74
2023/11/29 12:18:44;;;;;;;3.47;2.00;;;13.20;30.50;;;;;;5013499;28;20548;-75
2023/11/29 12:21:13;;;;;;;2.63;1.50;;;13.40;30.40;;;;;;5013196;28;20426;-73
2023/11/29 12:23:42;;;;;;;3.77;1.70;;;13.40;29.30;;;;;;5015508;28;20457;-74
2023/11/29 12:26:13;;;;;;;3.80;2.07;;;13.30;29.00;;;;;;5012363;28;20548;-73
2023/11/29 12:28:41;;;;;;;4.90;2.43;;;13.10;29.40;;;;;;5012382;28;20431;-75
2023/11/29 12:31:13;;;;;;;3.07;2.20;;;12.80;29.10;;;;;;5008582;28;20806;-76
2023/11/29 12:33:41;;;;;;;3.70;1.93;;;12.50;29.80;;;;;;4967782;28;20461;-80
2023/11/29 12:36:10;;;;;;;15.60;8.70;;;12.50;30.20;;;;;;4966373;28;20446;-81
2023/11/29 12:38:37;;;;;;;5.40;3.03;;;12.50;30.60;;;;;;4954763;28;20446;-81
2023/11/29 12:41:04;;;;;;;8.90;5.17;;;12.40;30.50;;;;;;4944369;28;20463;-80
2023/11/29 12:43:31;;;;;;;13.77;8.70;;;12.10;29.90;;;;;;4962743;28;20458;-81
2023/11/29 12:45:58;;;;;;;13.70;7.80;;;11.70;30.30;;;;;;4936867;28;20446;-84
2023/11/29 12:48:25;;;;;;;6.83;4.73;;;11.30;31.00;;;;;;4958654;28;20993;-78
2023/11/29 12:50:54;;;;;;;4.40;3.30;;;11.10;31.90;;;;;;4951192;28;20442;-77
2023/11/29 12:53:21;;;;;;;3.93;2.60;;;11.00;31.70;;;;;;4940433;28;20601;-77
2023/11/29 12:55:52;;;;;;;5.40;2.60;;;10.70;31.40;;;;;;4951375;28;20443;-82
2023/11/29 12:58:19;;;;;;;4.50;2.35;;;10.40;31.80;;;;;;4951997;28;21505;-82
2023/11/29 13:00:46;;;;;;;4.15;2.20;;;10.20;32.60;;;;;;4968662;28;20313;-83
2023/11/29 13:03:13;;;;;;;8.40;4.35;;;10.00;32.90;;;;;;5006817;28;20188;-76
2023/11/29 13:05:41;;;;;;;4.45;2.78;;;9.80;34.30;;;;;;5005848;28;20294;-76
2023/11/29 13:08:09;;;;;;;3.90;2.35;;;9.60;33.90;;;;;;5011787;28;21077;-76
2023/11/29 13:10:36;;;;;;;3.00;1.80;;;9.40;34.70;;;;;;4968599;28;20298;-74
2023/11/29 13:13:03;;;;;;;3.08;1.60;;;9.20;34.70;;;;;;4988429;28;20551;-78
2023/11/29 13:15:30;;;;;;;2.45;1.40;;;9.10;35.20;;;;;;5012762;28;20706;-75
2023/11/29 13:17:57;;;;;;;2.60;1.58;;;8.90;35.10;;;;;;5018191;28;20188;-74
2023/11/29 13:20:24;;;;;;;3.22;1.60;;;8.90;35.20;;;;;;5018056;28;20206;-75
2023/11/29 13:22:53;;;;;;;2.50;1.40;;;8.90;35.30;;;;;;5014515;28;20196;-77
2023/11/29 13:25:22;;;;;;;3.38;1.60;;;8.80;35.90;;;;;;5005434;28;20189;-77